Etusivu
METAR-TAF:

METAR-TAF

Lentoasemat :

Vojens, Tanska

Leveyspiiri: 55-14N, Pituuspiiri: 009-16E, korkeus merenpinnasta: 43 m

Tämänhetkinen sää

Tämä raportti tehtiin 43 minuuttia sitten, kello 23.50 UTC
Tuuli 2 kn idästä/koillisesta
Lämpötila 13°C
Kosteus 94%
Ilmanpaine 1017 hPa
Näkyvyys 10 km tai enemmän
ei pilviä alle 1500 m:ssä eikä cumulonimbus-pilviä

METAR: EKSP 192350Z 07002KT CAVOK 13/12 Q1017 RMK SKC

Aika: 02:33 (00:33 UTC)

Sääennuste

Tämä raportti tehtiin 1 tunti ja 32 minuuttia sitten, kello 23.01 UTC
Ennuste voimassa 20. päivästä klo 00 UTC - 20. päivään klo 24 UTC
Tuuli 3 kn eri suunnista
Näkyvyys 10 km tai enemmän
Muutamia pilviä 20000 ft:n korkeudessa
Tulossa
20. päivästä klo 06 UTC - 20. päivään klo 09 UTC
Tuuli 10 kn idästä/kaakosta

TAF: EKSP 192301Z 2000/2024 VRB03KT 9999 FEW200 BECMG 2006/2009 11010KT

Säähavainnot ja -ennusteet yli 4000 lentoasemalta (METAR- ja TAF-raportit).

Käytössä olevat sääasemat on merkitty karttaan keltaisilla ja punaisilla pisteillä.

Aseta hiiri pisteen päälle nähdäksesi sääaseman nimen.

Klikkaa sitten nähdäksesi säähavainnot ja -ennusteet.

Kartan vaihtaminen: klikkaa mustalla rastilla varustettuja vihreitä pisteitä, niin voit zoomata sisään; viivalla varustettua vihreää pistettä, niin voit zoomata ulos tai vihreitä nuolia, niin pääset viereisille kartoille.


METAR-TAF: